sensor_id;sensor_type;location;lat;lon;timestamp;P1;durP1;ratioP1;P2;durP2;ratioP2
31652;SDS011;18261;53.648;9.910;2023-12-28T00:00:12;6.55;;;2.70;;
31652;SDS011;18261;53.648;9.910;2023-12-28T00:02:38;9.27;;;3.15;;
31652;SDS011;18261;53.648;9.910;2023-12-28T00:05:05;5.93;;;2.38;;
31652;SDS011;18261;53.648;9.910;2023-12-28T00:07:32;6.38;;;2.85;;
31652;SDS011;18261;53.648;9.910;2023-12-28T00:09:58;5.95;;;2.65;;
31652;SDS011;18261;53.648;9.910;2023-12-28T00:12:24;9.90;;;3.45;;
31652;SDS011;18261;53.648;9.910;2023-12-28T00:14:50;7.65;;;2.63;;
31652;SDS011;18261;53.648;9.910;2023-12-28T00:17:16;13.93;;;2.88;;
31652;SDS011;18261;53.648;9.910;2023-12-28T00:19:42;7.45;;;2.80;;
31652;SDS011;18261;53.648;9.910;2023-12-28T00:22:08;8.45;;;2.85;;
31652;SDS011;18261;53.648;9.910;2023-12-28T00:24:34;11.15;;;2.75;;
31652;SDS011;18261;53.648;9.910;2023-12-28T00:27:00;8.15;;;2.95;;
31652;SDS011;18261;53.648;9.910;2023-12-28T00:29:26;7.97;;;2.95;;
31652;SDS011;18261;53.648;9.910;2023-12-28T00:31:53;7.35;;;3.03;;
31652;SDS011;18261;53.648;9.910;2023-12-28T00:34:19;6.90;;;2.83;;
31652;SDS011;18261;53.648;9.910;2023-12-28T00:36:45;10.88;;;2.83;;
31652;SDS011;18261;53.648;9.910;2023-12-28T00:39:11;10.23;;;3.20;;
31652;SDS011;18261;53.648;9.910;2023-12-28T00:41:37;14.18;;;2.75;;
31652;SDS011;18261;53.648;9.910;2023-12-28T00:44:03;7.45;;;2.90;;
31652;SDS011;18261;53.648;9.910;2023-12-28T00:46:32;6.03;;;2.90;;
31652;SDS011;18261;53.648;9.910;2023-12-28T00:48:58;9.45;;;3.10;;
31652;SDS011;18261;53.648;9.910;2023-12-28T00:51:24;13.93;;;3.28;;
31652;SDS011;18261;53.648;9.910;2023-12-28T00:53:50;8.80;;;2.55;;
31652;SDS011;18261;53.648;9.910;2023-12-28T00:56:16;9.00;;;3.10;;
31652;SDS011;18261;53.648;9.910;2023-12-28T00:58:42;6.70;;;2.72;;
31652;SDS011;18261;53.648;9.910;2023-12-28T01:01:09;11.07;;;3.00;;
31652;SDS011;18261;53.648;9.910;2023-12-28T01:03:35;8.40;;;3.00;;
31652;SDS011;18261;53.648;9.910;2023-12-28T01:06:01;9.75;;;3.15;;
31652;SDS011;18261;53.648;9.910;2023-12-28T01:08:27;5.57;;;2.78;;
31652;SDS011;18261;53.648;9.910;2023-12-28T01:10:53;12.00;;;3.20;;
31652;SDS011;18261;53.648;9.910;2023-12-28T01:13:19;10.32;;;3.78;;
31652;SDS011;18261;53.648;9.910;2023-12-28T01:15:45;6.15;;;3.05;;
31652;SDS011;18261;53.648;9.910;2023-12-28T01:18:11;9.18;;;3.65;;
31652;SDS011;18261;53.648;9.910;2023-12-28T01:20:37;10.43;;;3.30;;
31652;SDS011;18261;53.648;9.910;2023-12-28T01:23:03;14.43;;;3.28;;
31652;SDS011;18261;53.648;9.910;2023-12-28T01:25:29;10.00;;;3.15;;
31652;SDS011;18261;53.648;9.910;2023-12-28T01:27:55;11.35;;;3.72;;
31652;SDS011;18261;53.648;9.910;2023-12-28T01:30:21;8.45;;;3.60;;
31652;SDS011;18261;53.648;9.910;2023-12-28T01:32:47;9.73;;;3.25;;
31652;SDS011;18261;53.648;9.910;2023-12-28T01:35:13;7.60;;;2.90;;
31652;SDS011;18261;53.648;9.910;2023-12-28T01:37:39;8.77;;;3.53;;
31652;SDS011;18261;53.648;9.910;2023-12-28T01:40:05;8.38;;;3.17;;
31652;SDS011;18261;53.648;9.910;2023-12-28T01:42:32;10.40;;;3.40;;
31652;SDS011;18261;53.648;9.910;2023-12-28T01:44:58;9.45;;;3.42;;
31652;SDS011;18261;53.648;9.910;2023-12-28T01:47:26;11.63;;;3.40;;
31652;SDS011;18261;53.648;9.910;2023-12-28T01:49:53;10.00;;;3.80;;
31652;SDS011;18261;53.648;9.910;2023-12-28T01:52:19;9.38;;;3.33;;
31652;SDS011;18261;53.648;9.910;2023-12-28T01:54:45;10.00;;;3.88;;
31652;SDS011;18261;53.648;9.910;2023-12-28T01:57:11;10.20;;;3.30;;
31652;SDS011;18261;53.648;9.910;2023-12-28T01:59:39;7.63;;;3.40;;
31652;SDS011;18261;53.648;9.910;2023-12-28T02:02:05;8.55;;;3.53;;
31652;SDS011;18261;53.648;9.910;2023-12-28T02:04:31;9.10;;;3.47;;
31652;SDS011;18261;53.648;9.910;2023-12-28T02:06:58;10.70;;;3.92;;
31652;SDS011;18261;53.648;9.910;2023-12-28T02:09:25;7.82;;;3.83;;
31652;SDS011;18261;53.648;9.910;2023-12-28T02:11:51;11.65;;;3.78;;
31652;SDS011;18261;53.648;9.910;2023-12-28T02:14:17;10.30;;;3.78;;
31652;SDS011;18261;53.648;9.910;2023-12-28T02:16:49;13.50;;;3.72;;
31652;SDS011;18261;53.648;9.910;2023-12-28T02:19:21;5.75;;;3.28;;
31652;SDS011;18261;53.648;9.910;2023-12-28T02:21:50;8.63;;;3.60;;
31652;SDS011;18261;53.648;9.910;2023-12-28T02:24:17;10.23;;;3.67;;
31652;SDS011;18261;53.648;9.910;2023-12-28T02:26:43;13.90;;;4.20;;
31652;SDS011;18261;53.648;9.910;2023-12-28T02:29:09;9.52;;;3.75;;
31652;SDS011;18261;53.648;9.910;2023-12-28T02:31:37;8.95;;;3.58;;
31652;SDS011;18261;53.648;9.910;2023-12-28T02:34:08;9.98;;;3.70;;
31652;SDS011;18261;53.648;9.910;2023-12-28T02:36:36;9.52;;;3.67;;
31652;SDS011;18261;53.648;9.910;2023-12-28T02:39:03;11.57;;;3.78;;
31652;SDS011;18261;53.648;9.910;2023-12-28T02:41:30;9.88;;;3.47;;
31652;SDS011;18261;53.648;9.910;2023-12-28T02:43:56;10.27;;;3.85;;
31652;SDS011;18261;53.648;9.910;2023-12-28T02:46:22;8.07;;;3.40;;
31652;SDS011;18261;53.648;9.910;2023-12-28T02:48:49;9.93;;;4.15;;
31652;SDS011;18261;53.648;9.910;2023-12-28T02:51:15;8.13;;;3.75;;
31652;SDS011;18261;53.648;9.910;2023-12-28T02:53:41;14.57;;;4.10;;
31652;SDS011;18261;53.648;9.910;2023-12-28T02:56:07;5.93;;;4.05;;
31652;SDS011;18261;53.648;9.910;2023-12-28T02:58:33;8.27;;;3.42;;
31652;SDS011;18261;53.648;9.910;2023-12-28T03:00:59;9.18;;;3.80;;
31652;SDS011;18261;53.648;9.910;2023-12-28T03:03:25;8.52;;;3.55;;
31652;SDS011;18261;53.648;9.910;2023-12-28T03:05:51;8.50;;;3.92;;
31652;SDS011;18261;53.648;9.910;2023-12-28T03:08:17;8.20;;;3.75;;
31652;SDS011;18261;53.648;9.910;2023-12-28T03:10:43;10.20;;;4.28;;
31652;SDS011;18261;53.648;9.910;2023-12-28T03:13:09;11.55;;;4.38;;
31652;SDS011;18261;53.648;9.910;2023-12-28T03:15:35;10.02;;;4.07;;
31652;SDS011;18261;53.648;9.910;2023-12-28T03:18:01;7.05;;;3.60;;
31652;SDS011;18261;53.648;9.910;2023-12-28T03:20:27;10.52;;;3.85;;
31652;SDS011;18261;53.648;9.910;2023-12-28T03:22:53;10.70;;;4.47;;
31652;SDS011;18261;53.648;9.910;2023-12-28T03:25:19;9.55;;;3.72;;
31652;SDS011;18261;53.648;9.910;2023-12-28T03:27:45;11.20;;;3.83;;
31652;SDS011;18261;53.648;9.910;2023-12-28T03:30:11;11.43;;;3.95;;
31652;SDS011;18261;53.648;9.910;2023-12-28T03:32:37;12.82;;;3.90;;
31652;SDS011;18261;53.648;9.910;2023-12-28T03:35:03;17.75;;;4.60;;
31652;SDS011;18261;53.648;9.910;2023-12-28T03:37:31;11.20;;;3.70;;
31652;SDS011;18261;53.648;9.910;2023-12-28T03:39:57;10.13;;;3.83;;
31652;SDS011;18261;53.648;9.910;2023-12-28T03:42:23;8.68;;;3.90;;
31652;SDS011;18261;53.648;9.910;2023-12-28T03:44:49;10.93;;;3.90;;
31652;SDS011;18261;53.648;9.910;2023-12-28T03:47:15;11.52;;;4.60;;
31652;SDS011;18261;53.648;9.910;2023-12-28T03:49:41;10.25;;;3.95;;
31652;SDS011;18261;53.648;9.910;2023-12-28T03:52:07;9.75;;;4.10;;
31652;SDS011;18261;53.648;9.910;2023-12-28T03:54:33;9.10;;;3.70;;
31652;SDS011;18261;53.648;9.910;2023-12-28T03:56:59;10.48;;;3.78;;
31652;SDS011;18261;53.648;9.910;2023-12-28T03:59:25;14.32;;;4.32;;
31652;SDS011;18261;53.648;9.910;2023-12-28T04:01:51;8.57;;;3.55;;
31652;SDS011;18261;53.648;9.910;2023-12-28T04:04:17;14.00;;;4.15;;
31652;SDS011;18261;53.648;9.910;2023-12-28T04:06:43;9.05;;;3.90;;
31652;SDS011;18261;53.648;9.910;2023-12-28T04:09:11;11.00;;;4.07;;
31652;SDS011;18261;53.648;9.910;2023-12-28T04:11:37;11.75;;;4.43;;
31652;SDS011;18261;53.648;9.910;2023-12-28T04:14:03;13.75;;;4.13;;
31652;SDS011;18261;53.648;9.910;2023-12-28T04:16:29;12.98;;;4.30;;
31652;SDS011;18261;53.648;9.910;2023-12-28T04:18:55;11.85;;;4.13;;
31652;SDS011;18261;53.648;9.910;2023-12-28T04:21:21;9.27;;;4.05;;
31652;SDS011;18261;53.648;9.910;2023-12-28T04:23:47;9.65;;;4.40;;
31652;SDS011;18261;53.648;9.910;2023-12-28T04:26:13;11.15;;;4.32;;
31652;SDS011;18261;53.648;9.910;2023-12-28T04:28:39;18.90;;;4.20;;
31652;SDS011;18261;53.648;9.910;2023-12-28T04:31:06;9.02;;;3.67;;
31652;SDS011;18261;53.648;9.910;2023-12-28T04:33:32;10.10;;;4.10;;
31652;SDS011;18261;53.648;9.910;2023-12-28T04:36:02;12.20;;;4.10;;
31652;SDS011;18261;53.648;9.910;2023-12-28T04:38:31;12.45;;;4.53;;
31652;SDS011;18261;53.648;9.910;2023-12-28T04:40:58;14.43;;;4.93;;
31652;SDS011;18261;53.648;9.910;2023-12-28T04:43:24;16.30;;;4.70;;
31652;SDS011;18261;53.648;9.910;2023-12-28T04:45:50;10.82;;;4.13;;
31652;SDS011;18261;53.648;9.910;2023-12-28T04:48:16;10.55;;;4.00;;
31652;SDS011;18261;53.648;9.910;2023-12-28T04:50:48;12.25;;;3.95;;
31652;SDS011;18261;53.648;9.910;2023-12-28T04:53:14;11.38;;;5.18;;
31652;SDS011;18261;53.648;9.910;2023-12-28T04:55:40;20.45;;;4.25;;
31652;SDS011;18261;53.648;9.910;2023-12-28T04:58:06;11.85;;;4.22;;
31652;SDS011;18261;53.648;9.910;2023-12-28T05:00:32;9.98;;;4.15;;
31652;SDS011;18261;53.648;9.910;2023-12-28T05:02:58;10.88;;;3.70;;
31652;SDS011;18261;53.648;9.910;2023-12-28T05:05:24;13.43;;;4.38;;
31652;SDS011;18261;53.648;9.910;2023-12-28T05:07:50;10.32;;;3.95;;
31652;SDS011;18261;53.648;9.910;2023-12-28T05:10:16;9.70;;;4.03;;
31652;SDS011;18261;53.648;9.910;2023-12-28T05:12:42;11.48;;;4.40;;
31652;SDS011;18261;53.648;9.910;2023-12-28T05:15:08;21.60;;;4.72;;
31652;SDS011;18261;53.648;9.910;2023-12-28T05:17:34;12.07;;;4.13;;
31652;SDS011;18261;53.648;9.910;2023-12-28T05:20:00;12.52;;;4.45;;
31652;SDS011;18261;53.648;9.910;2023-12-28T05:22:26;17.90;;;4.40;;
31652;SDS011;18261;53.648;9.910;2023-12-28T05:24:52;11.38;;;4.75;;
31652;SDS011;18261;53.648;9.910;2023-12-28T05:27:18;13.07;;;3.50;;
31652;SDS011;18261;53.648;9.910;2023-12-28T05:29:44;16.23;;;5.03;;
31652;SDS011;18261;53.648;9.910;2023-12-28T05:32:10;12.18;;;4.68;;
31652;SDS011;18261;53.648;9.910;2023-12-28T05:34:36;12.88;;;4.38;;
31652;SDS011;18261;53.648;9.910;2023-12-28T05:37:02;14.95;;;4.40;;
31652;SDS011;18261;53.648;9.910;2023-12-28T05:39:28;11.52;;;4.38;;
31652;SDS011;18261;53.648;9.910;2023-12-28T05:41:54;13.23;;;5.07;;
31652;SDS011;18261;53.648;9.910;2023-12-28T05:44:20;12.75;;;4.78;;
31652;SDS011;18261;53.648;9.910;2023-12-28T05:46:46;9.73;;;4.82;;
31652;SDS011;18261;53.648;9.910;2023-12-28T05:49:12;13.55;;;5.00;;
31652;SDS011;18261;53.648;9.910;2023-12-28T05:51:41;13.68;;;4.70;;
31652;SDS011;18261;53.648;9.910;2023-12-28T05:54:07;9.23;;;4.22;;
31652;SDS011;18261;53.648;9.910;2023-12-28T05:56:33;11.95;;;3.92;;
31652;SDS011;18261;53.648;9.910;2023-12-28T05:58:59;17.05;;;4.30;;
31652;SDS011;18261;53.648;9.910;2023-12-28T06:01:25;10.10;;;4.32;;
31652;SDS011;18261;53.648;9.910;2023-12-28T06:03:52;11.10;;;4.15;;
31652;SDS011;18261;53.648;9.910;2023-12-28T06:06:18;9.82;;;4.32;;
31652;SDS011;18261;53.648;9.910;2023-12-28T06:08:45;16.23;;;4.65;;
31652;SDS011;18261;53.648;9.910;2023-12-28T06:11:11;13.95;;;4.45;;
31652;SDS011;18261;53.648;9.910;2023-12-28T06:13:37;12.93;;;4.60;;
31652;SDS011;18261;53.648;9.910;2023-12-28T06:16:03;11.57;;;4.35;;
31652;SDS011;18261;53.648;9.910;2023-12-28T06:18:29;15.52;;;4.93;;
31652;SDS011;18261;53.648;9.910;2023-12-28T06:20:56;15.50;;;4.60;;
31652;SDS011;18261;53.648;9.910;2023-12-28T06:23:22;12.60;;;4.80;;
31652;SDS011;18261;53.648;9.910;2023-12-28T06:25:48;11.95;;;4.32;;
31652;SDS011;18261;53.648;9.910;2023-12-28T06:28:14;13.50;;;4.50;;
31652;SDS011;18261;53.648;9.910;2023-12-28T06:30:40;10.27;;;4.35;;
31652;SDS011;18261;53.648;9.910;2023-12-28T06:33:06;17.05;;;4.22;;
31652;SDS011;18261;53.648;9.910;2023-12-28T06:35:32;18.55;;;4.47;;
31652;SDS011;18261;53.648;9.910;2023-12-28T06:37:58;10.52;;;3.97;;
31652;SDS011;18261;53.648;9.910;2023-12-28T06:40:24;13.00;;;4.60;;
31652;SDS011;18261;53.648;9.910;2023-12-28T06:42:50;18.02;;;4.60;;
31652;SDS011;18261;53.648;9.910;2023-12-28T06:45:16;13.45;;;4.07;;
31652;SDS011;18261;53.648;9.910;2023-12-28T06:47:42;19.40;;;4.82;;
31652;SDS011;18261;53.648;9.910;2023-12-28T06:50:08;15.90;;;4.43;;
31652;SDS011;18261;53.648;9.910;2023-12-28T06:52:34;12.52;;;4.40;;
31652;SDS011;18261;53.648;9.910;2023-12-28T06:55:00;13.82;;;4.03;;
31652;SDS011;18261;53.648;9.910;2023-12-28T06:57:27;9.70;;;3.90;;
31652;SDS011;18261;53.648;9.910;2023-12-28T06:59:53;10.93;;;4.22;;
31652;SDS011;18261;53.648;9.910;2023-12-28T07:02:19;13.45;;;4.30;;
31652;SDS011;18261;53.648;9.910;2023-12-28T07:04:45;18.02;;;4.13;;
31652;SDS011;18261;53.648;9.910;2023-12-28T07:07:11;19.13;;;4.30;;
31652;SDS011;18261;53.648;9.910;2023-12-28T07:09:37;16.70;;;4.80;;
31652;SDS011;18261;53.648;9.910;2023-12-28T07:12:03;13.68;;;4.15;;
31652;SDS011;18261;53.648;9.910;2023-12-28T07:14:29;18.23;;;4.10;;
31652;SDS011;18261;53.648;9.910;2023-12-28T07:16:55;15.38;;;4.05;;
31652;SDS011;18261;53.648;9.910;2023-12-28T07:19:21;23.20;;;4.00;;
31652;SDS011;18261;53.648;9.910;2023-12-28T07:21:47;11.40;;;3.67;;
31652;SDS011;18261;53.648;9.910;2023-12-28T07:24:13;14.10;;;4.30;;
31652;SDS011;18261;53.648;9.910;2023-12-28T07:26:39;16.02;;;4.60;;
31652;SDS011;18261;53.648;9.910;2023-12-28T07:29:05;10.85;;;3.83;;
31652;SDS011;18261;53.648;9.910;2023-12-28T07:31:31;17.05;;;4.55;;
31652;SDS011;18261;53.648;9.910;2023-12-28T07:33:57;14.88;;;3.85;;
31652;SDS011;18261;53.648;9.910;2023-12-28T07:36:23;17.33;;;4.10;;
31652;SDS011;18261;53.648;9.910;2023-12-28T07:38:49;14.20;;;3.70;;
31652;SDS011;18261;53.648;9.910;2023-12-28T07:41:15;11.45;;;4.30;;
31652;SDS011;18261;53.648;9.910;2023-12-28T07:43:42;22.77;;;4.80;;
31652;SDS011;18261;53.648;9.910;2023-12-28T07:46:08;14.20;;;4.25;;
31652;SDS011;18261;53.648;9.910;2023-12-28T07:48:34;17.95;;;3.72;;
31652;SDS011;18261;53.648;9.910;2023-12-28T07:51:06;20.73;;;4.32;;
31652;SDS011;18261;53.648;9.910;2023-12-28T07:53:32;18.92;;;3.83;;
31652;SDS011;18261;53.648;9.910;2023-12-28T07:55:58;17.42;;;4.32;;
31652;SDS011;18261;53.648;9.910;2023-12-28T07:58:24;12.55;;;3.88;;
31652;SDS011;18261;53.648;9.910;2023-12-28T08:00:50;18.17;;;4.00;;
31652;SDS011;18261;53.648;9.910;2023-12-28T08:03:16;19.83;;;3.67;;
31652;SDS011;18261;53.648;9.910;2023-12-28T08:05:42;16.73;;;3.30;;
31652;SDS011;18261;53.648;9.910;2023-12-28T08:08:08;14.63;;;3.55;;
31652;SDS011;18261;53.648;9.910;2023-12-28T08:10:34;18.77;;;3.80;;
31652;SDS011;18261;53.648;9.910;2023-12-28T08:13:00;19.88;;;4.05;;
31652;SDS011;18261;53.648;9.910;2023-12-28T08:15:26;25.45;;;3.63;;
31652;SDS011;18261;53.648;9.910;2023-12-28T08:17:52;16.65;;;3.67;;
31652;SDS011;18261;53.648;9.910;2023-12-28T08:20:18;18.80;;;3.67;;
31652;SDS011;18261;53.648;9.910;2023-12-28T08:22:44;17.55;;;3.47;;
31652;SDS011;18261;53.648;9.910;2023-12-28T08:25:10;20.30;;;3.67;;
31652;SDS011;18261;53.648;9.910;2023-12-28T08:27:36;15.27;;;3.40;;
31652;SDS011;18261;53.648;9.910;2023-12-28T08:30:03;17.33;;;3.72;;
31652;SDS011;18261;53.648;9.910;2023-12-28T08:32:29;17.65;;;4.07;;
31652;SDS011;18261;53.648;9.910;2023-12-28T08:34:55;16.75;;;3.42;;
31652;SDS011;18261;53.648;9.910;2023-12-28T08:37:22;24.63;;;3.63;;
31652;SDS011;18261;53.648;9.910;2023-12-28T08:39:48;15.05;;;4.30;;
31652;SDS011;18261;53.648;9.910;2023-12-28T08:42:14;28.95;;;5.00;;
31652;SDS011;18261;53.648;9.910;2023-12-28T08:44:40;20.85;;;3.45;;
31652;SDS011;18261;53.648;9.910;2023-12-28T08:47:06;19.20;;;3.92;;
31652;SDS011;18261;53.648;9.910;2023-12-28T08:49:32;19.77;;;3.45;;
31652;SDS011;18261;53.648;9.910;2023-12-28T08:51:58;15.50;;;2.80;;
31652;SDS011;18261;53.648;9.910;2023-12-28T08:54:24;20.58;;;3.45;;
31652;SDS011;18261;53.648;9.910;2023-12-28T08:56:50;21.02;;;3.45;;
31652;SDS011;18261;53.648;9.910;2023-12-28T08:59:16;14.73;;;2.95;;
31652;SDS011;18261;53.648;9.910;2023-12-28T09:01:42;17.70;;;4.07;;
31652;SDS011;18261;53.648;9.910;2023-12-28T09:04:08;18.83;;;3.35;;
31652;SDS011;18261;53.648;9.910;2023-12-28T09:06:34;20.25;;;4.65;;
31652;SDS011;18261;53.648;9.910;2023-12-28T09:09:00;19.08;;;3.42;;
31652;SDS011;18261;53.648;9.910;2023-12-28T09:11:27;18.52;;;3.92;;
31652;SDS011;18261;53.648;9.910;2023-12-28T09:13:53;21.42;;;3.08;;
31652;SDS011;18261;53.648;9.910;2023-12-28T09:16:19;22.13;;;3.72;;
31652;SDS011;18261;53.648;9.910;2023-12-28T09:18:45;20.77;;;3.50;;
31652;SDS011;18261;53.648;9.910;2023-12-28T09:21:12;30.90;;;3.88;;
31652;SDS011;18261;53.648;9.910;2023-12-28T09:23:38;21.83;;;3.85;;
31652;SDS011;18261;53.648;9.910;2023-12-28T09:26:05;15.88;;;3.10;;
31652;SDS011;18261;53.648;9.910;2023-12-28T09:28:32;20.27;;;3.35;;
31652;SDS011;18261;53.648;9.910;2023-12-28T09:30:59;23.38;;;3.67;;
31652;SDS011;18261;53.648;9.910;2023-12-28T09:33:25;18.33;;;3.55;;
31652;SDS011;18261;53.648;9.910;2023-12-28T09:35:51;21.27;;;4.05;;
31652;SDS011;18261;53.648;9.910;2023-12-28T09:38:18;17.70;;;3.00;;
31652;SDS011;18261;53.648;9.910;2023-12-28T09:40:44;18.73;;;3.72;;
31652;SDS011;18261;53.648;9.910;2023-12-28T09:43:23;20.13;;;3.38;;
31652;SDS011;18261;53.648;9.910;2023-12-28T09:45:53;23.90;;;4.22;;
31652;SDS011;18261;53.648;9.910;2023-12-28T09:48:20;18.85;;;3.92;;
31652;SDS011;18261;53.648;9.910;2023-12-28T09:50:50;21.73;;;3.63;;
31652;SDS011;18261;53.648;9.910;2023-12-28T09:53:16;24.48;;;3.95;;
31652;SDS011;18261;53.648;9.910;2023-12-28T09:55:42;28.00;;;4.07;;
31652;SDS011;18261;53.648;9.910;2023-12-28T09:58:08;29.08;;;4.28;;
31652;SDS011;18261;53.648;9.910;2023-12-28T10:00:35;28.02;;;4.50;;
31652;SDS011;18261;53.648;9.910;2023-12-28T10:03:01;26.05;;;3.53;;
31652;SDS011;18261;53.648;9.910;2023-12-28T10:05:28;23.77;;;3.92;;
31652;SDS011;18261;53.648;9.910;2023-12-28T10:07:54;26.17;;;3.83;;
31652;SDS011;18261;53.648;9.910;2023-12-28T10:10:22;24.75;;;3.78;;
31652;SDS011;18261;53.648;9.910;2023-12-28T10:12:48;22.40;;;4.45;;
31652;SDS011;18261;53.648;9.910;2023-12-28T10:15:14;29.52;;;5.35;;
31652;SDS011;18261;53.648;9.910;2023-12-28T10:17:40;27.80;;;4.20;;
31652;SDS011;18261;53.648;9.910;2023-12-28T10:20:06;21.45;;;3.67;;
31652;SDS011;18261;53.648;9.910;2023-12-28T10:22:35;20.38;;;4.40;;
31652;SDS011;18261;53.648;9.910;2023-12-28T10:25:02;33.83;;;4.68;;
31652;SDS011;18261;53.648;9.910;2023-12-28T10:27:28;22.83;;;3.33;;
31652;SDS011;18261;53.648;9.910;2023-12-28T10:29:57;25.63;;;3.85;;
31652;SDS011;18261;53.648;9.910;2023-12-28T10:32:23;21.98;;;3.72;;
31652;SDS011;18261;53.648;9.910;2023-12-28T10:34:52;22.45;;;3.60;;
31652;SDS011;18261;53.648;9.910;2023-12-28T10:37:19;22.88;;;3.70;;
31652;SDS011;18261;53.648;9.910;2023-12-28T10:39:46;25.15;;;3.90;;
31652;SDS011;18261;53.648;9.910;2023-12-28T10:42:14;26.63;;;4.45;;
31652;SDS011;18261;53.648;9.910;2023-12-28T10:44:43;21.80;;;3.90;;
31652;SDS011;18261;53.648;9.910;2023-12-28T10:47:15;26.92;;;4.10;;
31652;SDS011;18261;53.648;9.910;2023-12-28T10:49:44;29.58;;;4.65;;
31652;SDS011;18261;53.648;9.910;2023-12-28T10:52:11;22.52;;;3.83;;
31652;SDS011;18261;53.648;9.910;2023-12-28T10:54:44;21.30;;;3.72;;
31652;SDS011;18261;53.648;9.910;2023-12-28T11:00:02;30.52;;;4.72;;
31652;SDS011;18261;53.648;9.910;2023-12-28T11:02:36;26.83;;;3.67;;
31652;SDS011;18261;53.648;9.910;2023-12-28T11:05:04;25.95;;;4.45;;
31652;SDS011;18261;53.648;9.910;2023-12-28T11:07:31;28.48;;;4.60;;
31652;SDS011;18261;53.648;9.910;2023-12-28T11:09:59;26.98;;;5.88;;
31652;SDS011;18261;53.648;9.910;2023-12-28T11:12:26;30.83;;;4.10;;
31652;SDS011;18261;53.648;9.910;2023-12-28T11:14:52;27.33;;;4.90;;
31652;SDS011;18261;53.648;9.910;2023-12-28T11:17:20;28.70;;;4.53;;
31652;SDS011;18261;53.648;9.910;2023-12-28T11:19:46;33.30;;;4.50;;
31652;SDS011;18261;53.648;9.910;2023-12-28T11:22:13;34.10;;;4.80;;
31652;SDS011;18261;53.648;9.910;2023-12-28T11:24:39;25.30;;;4.00;;
31652;SDS011;18261;53.648;9.910;2023-12-28T11:27:05;24.40;;;3.65;;
31652;SDS011;18261;53.648;9.910;2023-12-28T11:29:31;26.45;;;3.97;;
31652;SDS011;18261;53.648;9.910;2023-12-28T11:31:58;28.60;;;4.80;;
31652;SDS011;18261;53.648;9.910;2023-12-28T11:34:24;27.52;;;4.53;;
31652;SDS011;18261;53.648;9.910;2023-12-28T11:36:51;33.70;;;4.63;;
31652;SDS011;18261;53.648;9.910;2023-12-28T11:39:20;38.85;;;5.07;;
31652;SDS011;18261;53.648;9.910;2023-12-28T11:41:52;37.97;;;5.53;;
31652;SDS011;18261;53.648;9.910;2023-12-28T11:44:26;31.05;;;4.80;;
31652;SDS011;18261;53.648;9.910;2023-12-28T11:46:51;33.28;;;4.93;;
31652;SDS011;18261;53.648;9.910;2023-12-28T11:49:24;30.13;;;5.05;;
31652;SDS011;18261;53.648;9.910;2023-12-28T11:51:55;33.25;;;4.70;;
31652;SDS011;18261;53.648;9.910;2023-12-28T11:54:22;28.98;;;4.60;;
31652;SDS011;18261;53.648;9.910;2023-12-28T11:56:48;29.23;;;4.45;;
31652;SDS011;18261;53.648;9.910;2023-12-28T11:59:14;28.33;;;4.53;;
31652;SDS011;18261;53.648;9.910;2023-12-28T12:01:40;27.33;;;4.75;;
31652;SDS011;18261;53.648;9.910;2023-12-28T12:04:06;39.75;;;5.03;;
31652;SDS011;18261;53.648;9.910;2023-12-28T12:06:32;27.95;;;3.95;;
31652;SDS011;18261;53.648;9.910;2023-12-28T12:08:58;29.80;;;4.38;;
31652;SDS011;18261;53.648;9.910;2023-12-28T12:11:24;30.75;;;5.47;;
31652;SDS011;18261;53.648;9.910;2023-12-28T12:13:51;29.83;;;4.20;;
31652;SDS011;18261;53.648;9.910;2023-12-28T12:16:17;31.08;;;4.40;;
31652;SDS011;18261;53.648;9.910;2023-12-28T12:18:43;38.80;;;4.65;;
31652;SDS011;18261;53.648;9.910;2023-12-28T12:21:09;28.55;;;4.32;;
31652;SDS011;18261;53.648;9.910;2023-12-28T12:23:35;32.28;;;5.15;;
31652;SDS011;18261;53.648;9.910;2023-12-28T12:26:04;37.90;;;5.00;;
31652;SDS011;18261;53.648;9.910;2023-12-28T12:28:30;28.52;;;4.85;;
31652;SDS011;18261;53.648;9.910;2023-12-28T12:30:56;33.17;;;4.45;;
31652;SDS011;18261;53.648;9.910;2023-12-28T12:33:22;37.83;;;5.43;;
31652;SDS011;18261;53.648;9.910;2023-12-28T12:35:50;35.28;;;4.80;;
31652;SDS011;18261;53.648;9.910;2023-12-28T12:38:16;37.42;;;5.45;;
31652;SDS011;18261;53.648;9.910;2023-12-28T12:40:42;34.50;;;5.20;;
31652;SDS011;18261;53.648;9.910;2023-12-28T12:43:08;42.30;;;7.00;;
31652;SDS011;18261;53.648;9.910;2023-12-28T12:45:34;45.95;;;6.30;;
31652;SDS011;18261;53.648;9.910;2023-12-28T12:48:04;37.22;;;5.85;;
31652;SDS011;18261;53.648;9.910;2023-12-28T12:50:31;28.10;;;4.50;;
31652;SDS011;18261;53.648;9.910;2023-12-28T12:53:00;38.00;;;5.55;;
31652;SDS011;18261;53.648;9.910;2023-12-28T12:55:26;36.47;;;5.40;;
31652;SDS011;18261;53.648;9.910;2023-12-28T12:57:53;30.23;;;4.75;;
31652;SDS011;18261;53.648;9.910;2023-12-28T13:00:22;29.17;;;4.15;;
31652;SDS011;18261;53.648;9.910;2023-12-28T13:02:51;35.42;;;5.35;;
31652;SDS011;18261;53.648;9.910;2023-12-28T13:05:21;36.10;;;5.47;;
31652;SDS011;18261;53.648;9.910;2023-12-28T13:07:47;31.65;;;4.55;;
31652;SDS011;18261;53.648;9.910;2023-12-28T13:10:13;34.70;;;4.82;;
31652;SDS011;18261;53.648;9.910;2023-12-28T13:12:39;31.88;;;4.78;;
31652;SDS011;18261;53.648;9.910;2023-12-28T13:15:05;30.10;;;4.18;;
31652;SDS011;18261;53.648;9.910;2023-12-28T13:17:31;26.75;;;4.20;;
31652;SDS011;18261;53.648;9.910;2023-12-28T13:19:57;37.60;;;5.43;;
31652;SDS011;18261;53.648;9.910;2023-12-28T13:22:23;34.85;;;5.40;;
31652;SDS011;18261;53.648;9.910;2023-12-28T13:24:49;36.47;;;5.07;;
31652;SDS011;18261;53.648;9.910;2023-12-28T13:27:15;30.27;;;4.93;;
31652;SDS011;18261;53.648;9.910;2023-12-28T13:29:41;30.20;;;4.25;;
31652;SDS011;18261;53.648;9.910;2023-12-28T13:32:08;34.33;;;5.00;;
31652;SDS011;18261;53.648;9.910;2023-12-28T13:34:34;27.88;;;4.70;;
31652;SDS011;18261;53.648;9.910;2023-12-28T13:37:00;39.30;;;4.65;;
31652;SDS011;18261;53.648;9.910;2023-12-28T13:39:27;30.83;;;5.13;;
31652;SDS011;18261;53.648;9.910;2023-12-28T13:41:54;35.85;;;4.55;;
31652;SDS011;18261;53.648;9.910;2023-12-28T13:44:20;32.00;;;4.57;;
31652;SDS011;18261;53.648;9.910;2023-12-28T13:46:46;36.03;;;5.88;;
31652;SDS011;18261;53.648;9.910;2023-12-28T13:49:12;33.55;;;5.18;;
31652;SDS011;18261;53.648;9.910;2023-12-28T13:51:38;33.65;;;4.70;;
31652;SDS011;18261;53.648;9.910;2023-12-28T13:54:04;29.17;;;4.22;;
31652;SDS011;18261;53.648;9.910;2023-12-28T13:56:31;28.58;;;4.25;;
31652;SDS011;18261;53.648;9.910;2023-12-28T13:58:57;30.98;;;4.70;;
31652;SDS011;18261;53.648;9.910;2023-12-28T14:01:23;32.25;;;6.07;;
31652;SDS011;18261;53.648;9.910;2023-12-28T14:03:49;47.92;;;5.40;;
31652;SDS011;18261;53.648;9.910;2023-12-28T14:06:16;35.63;;;5.78;;
31652;SDS011;18261;53.648;9.910;2023-12-28T14:08:43;34.63;;;5.47;;
31652;SDS011;18261;53.648;9.910;2023-12-28T14:11:09;30.48;;;4.50;;
31652;SDS011;18261;53.648;9.910;2023-12-28T14:13:35;43.80;;;6.15;;
31652;SDS011;18261;53.648;9.910;2023-12-28T14:16:02;31.55;;;4.80;;
31652;SDS011;18261;53.648;9.910;2023-12-28T14:18:28;44.25;;;5.18;;
31652;SDS011;18261;53.648;9.910;2023-12-28T14:20:54;46.40;;;6.30;;
31652;SDS011;18261;53.648;9.910;2023-12-28T14:23:20;30.70;;;4.53;;
31652;SDS011;18261;53.648;9.910;2023-12-28T14:25:46;32.97;;;5.00;;
31652;SDS011;18261;53.648;9.910;2023-12-28T14:28:18;37.80;;;4.93;;
31652;SDS011;18261;53.648;9.910;2023-12-28T14:30:44;38.65;;;5.10;;
31652;SDS011;18261;53.648;9.910;2023-12-28T14:33:10;39.40;;;5.05;;